sensor_id;sensor_type;location;lat;lon;timestamp;pressure;altitude;pressure_sealevel;temperature;humidity
61697;BME280;47610;52.252;20.922;2023-05-25T00:04:22;100602.27;;;15.57;100.00
61697;BME280;47610;52.252;20.922;2023-05-25T00:09:26;100603.40;;;15.48;100.00
61697;BME280;47610;52.252;20.922;2023-05-25T00:14:29;100602.79;;;15.42;100.00
61697;BME280;47610;52.252;20.922;2023-05-25T00:19:32;100604.42;;;15.37;100.00
61697;BME280;47610;52.252;20.922;2023-05-25T00:24:37;100606.48;;;15.34;100.00
61697;BME280;47610;52.252;20.922;2023-05-25T00:29:41;100606.05;;;15.29;100.00
61697;BME280;47610;52.252;20.922;2023-05-25T00:34:44;100605.39;;;15.26;100.00
61697;BME280;47610;52.252;20.922;2023-05-25T00:39:47;100608.62;;;15.24;100.00
61697;BME280;47610;52.252;20.922;2023-05-25T00:44:51;100610.14;;;15.23;100.00
61697;BME280;47610;52.252;20.922;2023-05-25T00:49:56;100611.23;;;15.20;100.00
61697;BME280;47610;52.252;20.922;2023-05-25T00:55:01;100612.50;;;15.21;100.00
61697;BME280;47610;52.252;20.922;2023-05-25T01:00:08;100612.67;;;15.21;100.00
61697;BME280;47610;52.252;20.922;2023-05-25T01:05:14;100615.84;;;15.21;100.00
61697;BME280;47610;52.252;20.922;2023-05-25T01:10:19;100621.70;;;15.22;100.00
61697;BME280;47610;52.252;20.922;2023-05-25T01:15:26;100624.02;;;15.22;100.00
61697;BME280;47610;52.252;20.922;2023-05-25T01:20:30;100628.39;;;15.22;100.00
61697;BME280;47610;52.252;20.922;2023-05-25T01:25:40;100632.29;;;15.21;100.00
61697;BME280;47610;52.252;20.922;2023-05-25T01:30:47;100633.44;;;15.19;100.00
61697;BME280;47610;52.252;20.922;2023-05-25T01:35:51;100627.14;;;15.17;100.00
61697;BME280;47610;52.252;20.922;2023-05-25T01:40:55;100627.09;;;15.14;100.00
61697;BME280;47610;52.252;20.922;2023-05-25T01:46:05;100625.51;;;15.12;100.00
61697;BME280;47610;52.252;20.922;2023-05-25T01:51:18;100625.02;;;15.13;100.00
61697;BME280;47610;52.252;20.922;2023-05-25T01:56:24;100624.58;;;15.11;100.00
61697;BME280;47610;52.252;20.922;2023-05-25T02:01:31;100621.10;;;15.10;100.00
61697;BME280;47610;52.252;20.922;2023-05-25T02:06:39;100623.86;;;15.10;100.00
61697;BME280;47610;52.252;20.922;2023-05-25T02:11:43;100623.63;;;15.09;100.00
61697;BME280;47610;52.252;20.922;2023-05-25T02:16:47;100619.29;;;15.05;100.00
61697;BME280;47610;52.252;20.922;2023-05-25T02:21:51;100619.66;;;15.06;100.00
61697;BME280;47610;52.252;20.922;2023-05-25T02:26:53;100621.48;;;15.06;100.00
61697;BME280;47610;52.252;20.922;2023-05-25T02:31:57;100621.02;;;15.05;100.00
61697;BME280;47610;52.252;20.922;2023-05-25T02:37:03;100626.20;;;15.02;100.00
61697;BME280;47610;52.252;20.922;2023-05-25T02:42:07;100632.89;;;14.99;100.00
61697;BME280;47610;52.252;20.922;2023-05-25T02:47:10;100637.44;;;14.99;100.00
61697;BME280;47610;52.252;20.922;2023-05-25T02:52:14;100636.73;;;14.91;100.00
61697;BME280;47610;52.252;20.922;2023-05-25T02:57:17;100633.80;;;14.86;100.00
61697;BME280;47610;52.252;20.922;2023-05-25T03:02:23;100636.81;;;14.85;100.00
61697;BME280;47610;52.252;20.922;2023-05-25T03:07:27;100638.58;;;14.86;100.00
61697;BME280;47610;52.252;20.922;2023-05-25T03:12:30;100637.88;;;14.85;100.00
61697;BME280;47610;52.252;20.922;2023-05-25T03:17:33;100639.12;;;14.83;100.00
61697;BME280;47610;52.252;20.922;2023-05-25T03:22:36;100648.00;;;14.82;100.00
61697;BME280;47610;52.252;20.922;2023-05-25T03:27:40;100650.92;;;14.82;100.00
61697;BME280;47610;52.252;20.922;2023-05-25T03:32:45;100662.80;;;14.82;100.00
61697;BME280;47610;52.252;20.922;2023-05-25T03:37:50;100669.52;;;14.81;100.00
61697;BME280;47610;52.252;20.922;2023-05-25T03:42:53;100675.60;;;14.82;100.00
61697;BME280;47610;52.252;20.922;2023-05-25T03:47:56;100676.94;;;14.80;100.00
61697;BME280;47610;52.252;20.922;2023-05-25T03:52:59;100666.90;;;14.82;100.00
61697;BME280;47610;52.252;20.922;2023-05-25T03:58:02;100667.61;;;14.83;100.00
61697;BME280;47610;52.252;20.922;2023-05-25T04:03:06;100673.66;;;14.86;100.00
61697;BME280;47610;52.252;20.922;2023-05-25T04:08:09;100669.48;;;14.87;100.00
61697;BME280;47610;52.252;20.922;2023-05-25T04:13:12;100679.94;;;14.85;100.00
61697;BME280;47610;52.252;20.922;2023-05-25T04:18:16;100680.59;;;14.82;100.00
61697;BME280;47610;52.252;20.922;2023-05-25T04:23:21;100688.06;;;14.87;100.00
61697;BME280;47610;52.252;20.922;2023-05-25T04:28:23;100691.70;;;14.93;100.00
61697;BME280;47610;52.252;20.922;2023-05-25T04:33:27;100691.92;;;15.01;100.00
61697;BME280;47610;52.252;20.922;2023-05-25T04:38:31;100690.48;;;15.10;100.00
61697;BME280;47610;52.252;20.922;2023-05-25T04:43:34;100686.46;;;15.15;100.00
61697;BME280;47610;52.252;20.922;2023-05-25T04:48:38;100692.11;;;15.19;100.00
61697;BME280;47610;52.252;20.922;2023-05-25T04:53:42;100694.95;;;15.24;100.00
61697;BME280;47610;52.252;20.922;2023-05-25T04:58:46;100698.00;;;15.27;100.00
61697;BME280;47610;52.252;20.922;2023-05-25T05:03:52;100698.04;;;15.28;100.00
61697;BME280;47610;52.252;20.922;2023-05-25T05:08:57;100703.20;;;15.29;100.00
61697;BME280;47610;52.252;20.922;2023-05-25T05:14:03;100697.02;;;15.29;100.00
61697;BME280;47610;52.252;20.922;2023-05-25T05:19:06;100695.09;;;15.32;100.00
61697;BME280;47610;52.252;20.922;2023-05-25T05:24:09;100703.11;;;15.38;100.00
61697;BME280;47610;52.252;20.922;2023-05-25T05:29:13;100708.83;;;15.40;100.00
61697;BME280;47610;52.252;20.922;2023-05-25T05:34:16;100715.30;;;15.42;100.00
61697;BME280;47610;52.252;20.922;2023-05-25T05:39:23;100716.98;;;15.40;100.00
61697;BME280;47610;52.252;20.922;2023-05-25T05:44:26;100716.38;;;15.41;100.00
61697;BME280;47610;52.252;20.922;2023-05-25T05:49:30;100724.61;;;15.43;100.00
61697;BME280;47610;52.252;20.922;2023-05-25T05:54:34;100732.77;;;15.47;100.00
61697;BME280;47610;52.252;20.922;2023-05-25T05:59:38;100737.50;;;15.49;100.00
61697;BME280;47610;52.252;20.922;2023-05-25T06:04:42;100737.09;;;15.53;100.00
61697;BME280;47610;52.252;20.922;2023-05-25T06:09:45;100743.87;;;15.55;100.00
61697;BME280;47610;52.252;20.922;2023-05-25T06:14:49;100747.27;;;15.54;100.00
61697;BME280;47610;52.252;20.922;2023-05-25T06:19:53;100751.20;;;15.54;100.00
61697;BME280;47610;52.252;20.922;2023-05-25T06:24:57;100755.48;;;15.61;100.00
61697;BME280;47610;52.252;20.922;2023-05-25T06:30:00;100764.41;;;15.71;100.00
61697;BME280;47610;52.252;20.922;2023-05-25T06:35:06;100767.44;;;15.77;100.00
61697;BME280;47610;52.252;20.922;2023-05-25T06:40:12;100768.66;;;15.83;100.00
61697;BME280;47610;52.252;20.922;2023-05-25T06:45:15;100771.58;;;15.77;100.00
61697;BME280;47610;52.252;20.922;2023-05-25T06:50:19;100770.81;;;15.80;100.00
61697;BME280;47610;52.252;20.922;2023-05-25T06:55:23;100773.39;;;15.86;100.00
61697;BME280;47610;52.252;20.922;2023-05-25T07:00:28;100777.08;;;15.96;100.00
61697;BME280;47610;52.252;20.922;2023-05-25T07:05:33;100778.88;;;16.04;100.00
61697;BME280;47610;52.252;20.922;2023-05-25T07:10:36;100778.83;;;16.07;100.00
61697;BME280;47610;52.252;20.922;2023-05-25T07:15:40;100773.25;;;16.09;100.00
61697;BME280;47610;52.252;20.922;2023-05-25T07:20:43;100768.33;;;16.15;100.00
61697;BME280;47610;52.252;20.922;2023-05-25T07:25:47;100770.48;;;16.18;100.00
61697;BME280;47610;52.252;20.922;2023-05-25T07:30:50;100767.79;;;16.20;100.00
61697;BME280;47610;52.252;20.922;2023-05-25T07:35:53;100772.46;;;16.27;100.00
61697;BME280;47610;52.252;20.922;2023-05-25T07:40:56;100774.24;;;16.35;100.00
61697;BME280;47610;52.252;20.922;2023-05-25T07:46:01;100775.72;;;16.43;100.00
61697;BME280;47610;52.252;20.922;2023-05-25T07:51:06;100771.65;;;16.53;100.00
61697;BME280;47610;52.252;20.922;2023-05-25T07:56:11;100768.77;;;16.73;100.00
61697;BME280;47610;52.252;20.922;2023-05-25T08:01:12;100769.88;;;16.97;100.00
61697;BME280;47610;52.252;20.922;2023-05-25T08:06:16;100775.81;;;17.17;100.00
61697;BME280;47610;52.252;20.922;2023-05-25T08:11:23;100778.41;;;17.26;100.00
61697;BME280;47610;52.252;20.922;2023-05-25T08:16:28;100777.54;;;17.43;100.00
61697;BME280;47610;52.252;20.922;2023-05-25T08:21:33;100769.26;;;17.61;100.00
61697;BME280;47610;52.252;20.922;2023-05-25T08:26:38;100765.92;;;17.84;100.00
61697;BME280;47610;52.252;20.922;2023-05-25T08:31:42;100768.95;;;18.07;100.00
61697;BME280;47610;52.252;20.922;2023-05-25T08:36:45;100779.89;;;18.47;100.00
61697;BME280;47610;52.252;20.922;2023-05-25T08:41:51;100773.60;;;19.18;100.00
61697;BME280;47610;52.252;20.922;2023-05-25T08:46:57;100774.30;;;20.30;100.00
61697;BME280;47610;52.252;20.922;2023-05-25T08:52:05;100781.02;;;21.47;100.00
61697;BME280;47610;52.252;20.922;2023-05-25T08:57:16;100775.13;;;22.80;100.00
61697;BME280;47610;52.252;20.922;2023-05-25T09:02:28;100778.48;;;23.23;100.00
61697;BME280;47610;52.252;20.922;2023-05-25T09:07:35;100773.66;;;23.76;100.00
61697;BME280;47610;52.252;20.922;2023-05-25T09:12:42;100776.32;;;23.76;100.00
61697;BME280;47610;52.252;20.922;2023-05-25T09:17:45;100784.68;;;23.93;100.00
61697;BME280;47610;52.252;20.922;2023-05-25T09:22:49;100787.28;;;24.33;100.00
61697;BME280;47610;52.252;20.922;2023-05-25T09:27:54;100790.77;;;24.34;100.00
61697;BME280;47610;52.252;20.922;2023-05-25T09:33:11;100784.92;;;24.32;100.00
61697;BME280;47610;52.252;20.922;2023-05-25T09:38:16;100788.03;;;24.82;100.00
61697;BME280;47610;52.252;20.922;2023-05-25T09:43:22;100791.16;;;25.25;100.00
61697;BME280;47610;52.252;20.922;2023-05-25T09:48:25;100793.23;;;25.15;100.00
61697;BME280;47610;52.252;20.922;2023-05-25T09:53:32;100797.85;;;24.67;100.00
61697;BME280;47610;52.252;20.922;2023-05-25T09:58:37;100794.56;;;23.93;100.00
61697;BME280;47610;52.252;20.922;2023-05-25T10:03:46;100799.55;;;23.29;100.00
61697;BME280;47610;52.252;20.922;2023-05-25T10:08:51;100798.47;;;22.71;100.00
61697;BME280;47610;52.252;20.922;2023-05-25T10:13:56;100797.90;;;22.28;100.00
61697;BME280;47610;52.252;20.922;2023-05-25T10:19:05;100797.45;;;21.95;100.00
61697;BME280;47610;52.252;20.922;2023-05-25T10:24:13;100794.45;;;21.65;100.00
61697;BME280;47610;52.252;20.922;2023-05-25T10:29:23;100790.65;;;21.35;100.00
61697;BME280;47610;52.252;20.922;2023-05-25T10:34:27;100793.03;;;21.06;100.00
61697;BME280;47610;52.252;20.922;2023-05-25T10:39:33;100791.44;;;20.83;100.00
61697;BME280;47610;52.252;20.922;2023-05-25T10:44:43;100786.94;;;20.65;100.00
61697;BME280;47610;52.252;20.922;2023-05-25T10:49:54;100779.30;;;20.52;100.00
61697;BME280;47610;52.252;20.922;2023-05-25T10:55:00;100777.39;;;20.45;100.00
61697;BME280;47610;52.252;20.922;2023-05-25T11:00:06;100774.86;;;20.44;100.00
61697;BME280;47610;52.252;20.922;2023-05-25T11:10:59;100773.92;;;20.60;100.00
61697;BME280;47610;52.252;20.922;2023-05-25T11:16:16;100773.84;;;20.75;100.00
61697;BME280;47610;52.252;20.922;2023-05-25T11:21:42;100775.54;;;20.95;100.00
61697;BME280;47610;52.252;20.922;2023-05-25T11:26:58;100771.10;;;21.25;100.00
61697;BME280;47610;52.252;20.922;2023-05-25T11:32:01;100767.66;;;21.57;100.00
61697;BME280;47610;52.252;20.922;2023-05-25T11:37:07;100765.58;;;21.75;100.00
61697;BME280;47610;52.252;20.922;2023-05-25T11:42:12;100758.40;;;21.92;100.00
61697;BME280;47610;52.252;20.922;2023-05-25T11:47:18;100748.11;;;22.23;100.00
61697;BME280;47610;52.252;20.922;2023-05-25T11:52:23;100744.48;;;22.28;100.00
61697;BME280;47610;52.252;20.922;2023-05-25T11:57:29;100745.27;;;22.30;100.00
61697;BME280;47610;52.252;20.922;2023-05-25T12:02:37;100743.65;;;22.34;100.00
61697;BME280;47610;52.252;20.922;2023-05-25T12:07:45;100738.98;;;22.34;100.00
61697;BME280;47610;52.252;20.922;2023-05-25T12:12:52;100732.21;;;22.32;100.00
61697;BME280;47610;52.252;20.922;2023-05-25T12:17:55;100725.94;;;22.37;100.00
61697;BME280;47610;52.252;20.922;2023-05-25T12:23:00;100726.33;;;22.48;100.00
61697;BME280;47610;52.252;20.922;2023-05-25T12:28:12;100730.17;;;22.65;100.00
61697;BME280;47610;52.252;20.922;2023-05-25T12:33:16;100725.41;;;22.76;100.00
61697;BME280;47610;52.252;20.922;2023-05-25T12:38:20;100719.30;;;22.89;100.00
61697;BME280;47610;52.252;20.922;2023-05-25T12:43:26;100717.29;;;22.98;100.00
61697;BME280;47610;52.252;20.922;2023-05-25T12:48:38;100705.83;;;23.06;100.00
61697;BME280;47610;52.252;20.922;2023-05-25T12:53:52;100698.90;;;23.23;100.00
61697;BME280;47610;52.252;20.922;2023-05-25T12:58:56;100693.77;;;23.36;100.00
61697;BME280;47610;52.252;20.922;2023-05-25T13:04:15;100689.98;;;23.47;100.00
61697;BME280;47610;52.252;20.922;2023-05-25T13:09:21;100692.89;;;23.61;100.00
61697;BME280;47610;52.252;20.922;2023-05-25T13:14:28;100684.33;;;23.73;100.00
61697;BME280;47610;52.252;20.922;2023-05-25T13:19:31;100677.27;;;23.81;100.00
61697;BME280;47610;52.252;20.922;2023-05-25T13:24:36;100670.69;;;23.76;100.00
61697;BME280;47610;52.252;20.922;2023-05-25T13:29:39;100667.15;;;23.59;100.00
61697;BME280;47610;52.252;20.922;2023-05-25T13:34:43;100666.52;;;23.57;100.00
61697;BME280;47610;52.252;20.922;2023-05-25T13:39:49;100659.63;;;23.57;100.00
61697;BME280;47610;52.252;20.922;2023-05-25T13:44:52;100656.98;;;23.58;100.00
61697;BME280;47610;52.252;20.922;2023-05-25T13:49:55;100651.37;;;23.61;100.00
61697;BME280;47610;52.252;20.922;2023-05-25T13:55:00;100647.95;;;23.62;100.00
61697;BME280;47610;52.252;20.922;2023-05-25T14:00:09;100644.16;;;23.58;100.00
61697;BME280;47610;52.252;20.922;2023-05-25T14:05:12;100643.23;;;23.54;100.00
61697;BME280;47610;52.252;20.922;2023-05-25T14:10:16;100647.55;;;23.45;100.00
61697;BME280;47610;52.252;20.922;2023-05-25T14:15:22;100644.68;;;23.40;100.00
61697;BME280;47610;52.252;20.922;2023-05-25T14:20:27;100646.38;;;23.30;100.00
61697;BME280;47610;52.252;20.922;2023-05-25T14:25:30;100642.53;;;23.25;100.00
61697;BME280;47610;52.252;20.922;2023-05-25T14:30:35;100636.74;;;23.27;100.00
61697;BME280;47610;52.252;20.922;2023-05-25T14:35:38;100639.64;;;23.22;100.00
61697;BME280;47610;52.252;20.922;2023-05-25T14:40:41;100640.29;;;23.14;100.00
61697;BME280;47610;52.252;20.922;2023-05-25T14:45:44;100636.33;;;23.02;100.00
61697;BME280;47610;52.252;20.922;2023-05-25T14:50:51;100638.97;;;22.93;100.00
61697;BME280;47610;52.252;20.922;2023-05-25T14:55:54;100635.98;;;22.84;100.00
61697;BME280;47610;52.252;20.922;2023-05-25T15:01:00;100633.94;;;22.78;100.00
61697;BME280;47610;52.252;20.922;2023-05-25T15:06:07;100633.39;;;22.73;100.00
61697;BME280;47610;52.252;20.922;2023-05-25T15:11:10;100631.28;;;22.68;100.00
61697;BME280;47610;52.252;20.922;2023-05-25T15:16:16;100633.14;;;22.58;100.00
61697;BME280;47610;52.252;20.922;2023-05-25T15:21:21;100627.61;;;22.51;100.00
61697;BME280;47610;52.252;20.922;2023-05-25T15:26:25;100631.02;;;22.43;100.00
61697;BME280;47610;52.252;20.922;2023-05-25T15:31:28;100630.39;;;22.38;100.00
61697;BME280;47610;52.252;20.922;2023-05-25T15:36:31;100626.95;;;22.39;100.00
61697;BME280;47610;52.252;20.922;2023-05-25T15:41:34;100628.01;;;22.41;100.00
61697;BME280;47610;52.252;20.922;2023-05-25T15:46:40;100621.20;;;22.42;100.00
61697;BME280;47610;52.252;20.922;2023-05-25T15:51:44;100624.69;;;22.43;100.00
61697;BME280;47610;52.252;20.922;2023-05-25T15:56:47;100621.95;;;22.47;100.00
61697;BME280;47610;52.252;20.922;2023-05-25T16:01:50;100623.19;;;22.48;100.00
61697;BME280;47610;52.252;20.922;2023-05-25T16:06:55;100624.71;;;22.44;100.00
61697;BME280;47610;52.252;20.922;2023-05-25T16:12:01;100627.79;;;22.35;100.00
61697;BME280;47610;52.252;20.922;2023-05-25T16:17:05;100627.39;;;22.25;100.00
61697;BME280;47610;52.252;20.922;2023-05-25T16:22:08;100624.64;;;22.13;100.00
61697;BME280;47610;52.252;20.922;2023-05-25T16:27:12;100621.92;;;22.02;100.00
61697;BME280;47610;52.252;20.922;2023-05-25T16:32:16;100620.11;;;21.93;100.00
61697;BME280;47610;52.252;20.922;2023-05-25T16:37:18;100621.33;;;21.87;100.00
61697;BME280;47610;52.252;20.922;2023-05-25T16:42:22;100619.77;;;21.82;100.00
61697;BME280;47610;52.252;20.922;2023-05-25T16:47:25;100615.92;;;21.77;100.00
61697;BME280;47610;52.252;20.922;2023-05-25T16:52:28;100616.95;;;21.75;100.00
61697;BME280;47610;52.252;20.922;2023-05-25T16:57:32;100612.84;;;21.69;100.00
61697;BME280;47610;52.252;20.922;2023-05-25T17:02:35;100612.65;;;21.63;100.00
61697;BME280;47610;52.252;20.922;2023-05-25T17:07:38;100612.14;;;21.59;100.00
61697;BME280;47610;52.252;20.922;2023-05-25T17:12:44;100618.09;;;21.53;100.00
61697;BME280;47610;52.252;20.922;2023-05-25T17:17:47;100615.38;;;21.46;100.00
61697;BME280;47610;52.252;20.922;2023-05-25T17:22:50;100614.13;;;21.40;100.00
61697;BME280;47610;52.252;20.922;2023-05-25T17:27:55;100618.65;;;21.36;100.00
61697;BME280;47610;52.252;20.922;2023-05-25T17:32:59;100621.30;;;21.30;100.00
61697;BME280;47610;52.252;20.922;2023-05-25T17:38:02;100623.14;;;21.25;100.00
61697;BME280;47610;52.252;20.922;2023-05-25T17:43:07;100621.91;;;21.23;100.00
61697;BME280;47610;52.252;20.922;2023-05-25T17:48:11;100621.21;;;21.19;100.00
61697;BME280;47610;52.252;20.922;2023-05-25T17:53:16;100627.33;;;21.14;100.00
61697;BME280;47610;52.252;20.922;2023-05-25T17:58:20;100631.71;;;21.07;100.00
61697;BME280;47610;52.252;20.922;2023-05-25T18:03:24;100635.02;;;21.01;100.00
61697;BME280;47610;52.252;20.922;2023-05-25T18:08:27;100634.34;;;20.95;100.00
61697;BME280;47610;52.252;20.922;2023-05-25T18:13:32;100641.55;;;20.89;100.00
61697;BME280;47610;52.252;20.922;2023-05-25T18:18:35;100639.48;;;20.81;100.00
61697;BME280;47610;52.252;20.922;2023-05-25T18:23:39;100641.63;;;20.75;100.00
61697;BME280;47610;52.252;20.922;2023-05-25T18:28:44;100641.64;;;20.69;100.00
61697;BME280;47610;52.252;20.922;2023-05-25T18:33:47;100649.17;;;20.62;100.00
61697;BME280;47610;52.252;20.922;2023-05-25T18:38:50;100652.63;;;20.56;100.00
61697;BME280;47610;52.252;20.922;2023-05-25T18:43:56;100659.17;;;20.51;100.00
61697;BME280;47610;52.252;20.922;2023-05-25T18:48:59;100664.52;;;20.45;100.00
61697;BME280;47610;52.252;20.922;2023-05-25T18:54:04;100671.31;;;20.41;100.00
61697;BME280;47610;52.252;20.922;2023-05-25T18:59:07;100671.04;;;20.38;100.00
61697;BME280;47610;52.252;20.922;2023-05-25T19:04:10;100670.73;;;20.36;100.00
61697;BME280;47610;52.252;20.922;2023-05-25T19:09:14;100671.29;;;20.33;100.00
61697;BME280;47610;52.252;20.922;2023-05-25T19:14:17;100673.20;;;20.30;100.00
61697;BME280;47610;52.252;20.922;2023-05-25T19:19:20;100679.20;;;20.28;100.00
61697;BME280;47610;52.252;20.922;2023-05-25T19:24:26;100679.30;;;20.25;100.00
61697;BME280;47610;52.252;20.922;2023-05-25T19:29:29;100681.45;;;20.21;100.00
61697;BME280;47610;52.252;20.922;2023-05-25T19:34:34;100686.05;;;20.14;100.00
61697;BME280;47610;52.252;20.922;2023-05-25T19:39:38;100695.14;;;20.05;100.00
61697;BME280;47610;52.252;20.922;2023-05-25T19:44:41;100690.48;;;19.99;100.00
61697;BME280;47610;52.252;20.922;2023-05-25T19:49:44;100692.78;;;19.97;100.00
61697;BME280;47610;52.252;20.922;2023-05-25T19:54:47;100692.92;;;19.93;100.00
61697;BME280;47610;52.252;20.922;2023-05-25T19:59:52;100694.86;;;19.90;100.00
61697;BME280;47610;52.252;20.922;2023-05-25T20:04:57;100695.92;;;19.87;100.00
61697;BME280;47610;52.252;20.922;2023-05-25T20:10:00;100690.87;;;19.83;100.00
61697;BME280;47610;52.252;20.922;2023-05-25T20:15:07;100686.67;;;19.76;100.00
61697;BME280;47610;52.252;20.922;2023-05-25T20:20:11;100688.35;;;19.72;100.00
61697;BME280;47610;52.252;20.922;2023-05-25T20:25:15;100691.73;;;19.68;100.00
61697;BME280;47610;52.252;20.922;2023-05-25T20:30:19;100685.17;;;19.61;100.00
61697;BME280;47610;52.252;20.922;2023-05-25T20:35:23;100689.15;;;19.55;100.00
61697;BME280;47610;52.252;20.922;2023-05-25T20:40:28;100696.20;;;19.49;100.00
61697;BME280;47610;52.252;20.922;2023-05-25T20:45:32;100701.95;;;19.41;100.00
61697;BME280;47610;52.252;20.922;2023-05-25T20:50:36;100699.45;;;19.35;100.00
61697;BME280;47610;52.252;20.922;2023-05-25T20:55:38;100707.36;;;19.30;100.00
61697;BME280;47610;52.252;20.922;2023-05-25T21:00:44;100707.92;;;19.30;100.00
61697;BME280;47610;52.252;20.922;2023-05-25T21:05:47;100708.92;;;19.25;100.00
61697;BME280;47610;52.252;20.922;2023-05-25T21:10:51;100712.14;;;19.17;100.00
61697;BME280;47610;52.252;20.922;2023-05-25T21:15:54;100718.55;;;19.07;100.00
61697;BME280;47610;52.252;20.922;2023-05-25T21:20:58;100724.65;;;19.05;100.00
61697;BME280;47610;52.252;20.922;2023-05-25T21:26:02;100720.81;;;19.05;100.00
61697;BME280;47610;52.252;20.922;2023-05-25T21:31:04;100719.42;;;18.99;100.00
61697;BME280;47610;52.252;20.922;2023-05-25T21:36:09;100723.05;;;18.89;100.00
61697;BME280;47610;52.252;20.922;2023-05-25T21:41:13;100726.08;;;18.76;100.00
61697;BME280;47610;52.252;20.922;2023-05-25T21:46:16;100732.98;;;18.63;100.00
61697;BME280;47610;52.252;20.922;2023-05-25T21:51:21;100735.80;;;18.49;100.00
61697;BME280;47610;52.252;20.922;2023-05-25T21:56:22;100736.92;;;18.38;100.00
61697;BME280;47610;52.252;20.922;2023-05-25T22:01:26;100735.35;;;18.32;100.00
61697;BME280;47610;52.252;20.922;2023-05-25T22:06:30;100735.49;;;18.29;100.00
61697;BME280;47610;52.252;20.922;2023-05-25T22:11:33;100738.95;;;18.31;100.00
61697;BME280;47610;52.252;20.922;2023-05-25T22:16:37;100730.21;;;18.29;100.00
61697;BME280;47610;52.252;20.922;2023-05-25T22:21:40;100730.62;;;18.19;100.00
61697;BME280;47610;52.252;20.922;2023-05-25T22:26:43;100732.49;;;18.11;100.00
61697;BME280;47610;52.252;20.922;2023-05-25T22:31:46;100736.16;;;18.03;100.00
61697;BME280;47610;52.252;20.922;2023-05-25T22:36:50;100747.11;;;17.97;100.00
61697;BME280;47610;52.252;20.922;2023-05-25T22:41:53;100753.10;;;17.96;100.00
61697;BME280;47610;52.252;20.922;2023-05-25T22:46:56;100755.48;;;17.99;100.00
61697;BME280;47610;52.252;20.922;2023-05-25T22:51:59;100754.95;;;17.96;100.00
61697;BME280;47610;52.252;20.922;2023-05-25T22:57:04;100766.10;;;17.89;100.00
61697;BME280;47610;52.252;20.922;2023-05-25T23:02:08;100763.39;;;17.78;100.00
61697;BME280;47610;52.252;20.922;2023-05-25T23:07:11;100763.05;;;17.68;100.00
61697;BME280;47610;52.252;20.922;2023-05-25T23:12:15;100764.83;;;17.56;100.00
61697;BME280;47610;52.252;20.922;2023-05-25T23:17:18;100764.48;;;17.44;100.00
61697;BME280;47610;52.252;20.922;2023-05-25T23:22:22;100765.96;;;17.30;100.00
61697;BME280;47610;52.252;20.922;2023-05-25T23:27:24;100771.19;;;17.14;100.00
61697;BME280;47610;52.252;20.922;2023-05-25T23:32:29;100769.86;;;17.01;100.00
61697;BME280;47610;52.252;20.922;2023-05-25T23:37:32;100771.81;;;16.89;100.00
61697;BME280;47610;52.252;20.922;2023-05-25T23:42:42;100770.27;;;16.80;100.00
61697;BME280;47610;52.252;20.922;2023-05-25T23:47:45;100775.33;;;16.74;100.00
61697;BME280;47610;52.252;20.922;2023-05-25T23:52:49;100778.69;;;16.66;100.00
61697;BME280;47610;52.252;20.922;2023-05-25T23:57:52;100774.85;;;16.60;100.00
